This is the latest recevied weather packets stored in our database for station/object KN6CRX. If no packets are shown the sender has not sent any weather packets the latest 10 day(s).
| Time | Temp. | Humidity | Pressure | Rain* | Wind** | Luminosity | Snow |
|---|---|---|---|---|---|---|---|
| 1787945440 | 28.89° C | 34% | 1020.8 hPa | 0 mm | - | 514 W/m² | - |
| 1787945135 | 28.89° C | 33% | 1020.6 hPa | 0 mm | - | 410 W/m² | - |
| 1787944832 | 28.89° C | 34% | 1020.7 hPa | 0 mm | - | 351 W/m² | - |
| 1787944527 | 28.33° C | 36% | 1020.6 hPa | 0 mm | - | 918 W/m² | - |
| 1787944224 | 27.78° C | 35% | 1020.7 hPa | 0 mm | - | 356 W/m² | - |
| 1787943922 | 27.22° C | 37% | 1020.8 hPa | 0 mm | - | 1000 W/m² | - |
| 1787943619 | 26.67° C | 37% | 1020.7 hPa | 0 mm | - | 264 W/m² | - |
| 1787943318 | 26.67° C | 39% | 1020.8 hPa | 0 mm | - | 233 W/m² | - |
| 1787943014 | 27.22° C | 37% | 1020.8 hPa | 0 mm | - | 211 W/m² | - |
| 1787942709 | 27.22° C | 39% | 1020.8 hPa | 0 mm | - | 279 W/m² | - |
| 1787942409 | 27.22° C | 38% | 1020.9 hPa | 0 mm | - | 246 W/m² | - |
| 1787942103 | 27.78° C | 37% | 1020.7 hPa | 0 mm | - | 275 W/m² | - |
| 1787941799 | 27.78° C | 37% | 1020.7 hPa | 0 mm | - | 534 W/m² | - |
| 1787941497 | 26.67° C | 41% | 1020.6 hPa | 0 mm | - | 701 W/m² | - |
| 1787941192 | 26.67° C | 41% | 1020.8 hPa | 0 mm | - | 358 W/m² | - |
| 1787940887 | 26.11° C | 40% | 1020.6 hPa | 0 mm | - | 296 W/m² | - |
| 1787940585 | 26.11° C | 41% | 1020.9 hPa | 0 mm | - | 272 W/m² | - |
| 1787940284 | 26.67° C | 39% | 1021 hPa | 0 mm | - | 268 W/m² | - |
| 1787939984 | 26.67° C | 40% | 1021.2 hPa | 0 mm | - | 234 W/m² | - |
| 1787939684 | 27.22° C | 39% | 1021.2 hPa | 0 mm | - | 332 W/m² | - |
| 1787939378 | 27.22° C | 38% | 1021.2 hPa | 0 mm | - | 216 W/m² | - |
| 1787939074 | 27.22° C | 39% | 1021.3 hPa | 0 mm | - | 292 W/m² | - |
| 1787938772 | 27.78° C | 36% | 1021.3 hPa | 0 mm | - | 339 W/m² | - |
| 1787938468 | 27.22° C | 37% | 1021.2 hPa | 0 mm | - | 551 W/m² | - |
| 1787938164 | 26.67° C | 40% | 1021.2 hPa | 0 mm | - | 428 W/m² | - |
* Rain latest hour (hover to see other rain measurements)
** Current wind speed in m/s (hover to see current wind gust speed)